首页
METAR-TAF:

METAR-TAF

机场 :

桂林兩江國際機場

桂林, 中华人民共和国

纬度: 25-20N, 经度: 110-18E, 海拔: 166米

当前天气观测

该预报发布于30分钟前的15:00 UTC
风速6节,风向,在北转东北之间变化
温度 27°C
湿度 89%
气压 1004 hPa
能見度: 5000
多云层高于4000英尺
阴天层高于6600英尺
轻雾

METAR: ZGKL 161500Z 08003MPS 020V100 5000 BR BKN040 OVC066 27/25 Q1004 NOSIG

时间: 23:30 (15:30 UTC)

预报

该预报发布于6小时和19分钟前的09:11 UTC
预报有效从16日的 12点(UTC)到 17日的 12点(UTC)
风速8节,风向东北
能见度10公里或以上
散云层高于2000英尺
多云层高于6000英尺
短暂存在
从 17日的 07点(UTC)到 17日的 12点(UTC)
少量云层高于4000英尺, 积雨云.
多云层高于4000英尺

TAF: ZGKL 160911Z 1612/1712 05004MPS 9999 SCT020 BKN060 TX33/1708Z TN25/1622Z TEMPO 1707/1712 FEW040CB BKN040

超过4000个机场的气象观测和天气预报(METAR&TAF报告)。

可查询的气象台以黄色和红色小点在地图上表示。

将鼠标移到小点上方,可查看气象台名称。

然后点击查看天气观测和预报。

如需切换地图:点击带黑十字的绿色按钮放大地图;点击带横线的绿色按钮缩小地图;或者点击绿色箭头查看邻近地区的地图。


METAR-TAF: